This is the latest recevied weather packets stored in our database for station/object N8VDS-10. If no packets are shown the sender has not sent any weather packets the latest 10 day(s).
| Time | Temp. | Humidity | Pressure | Rain* | Wind** | Luminosity | Snow |
|---|---|---|---|---|---|---|---|
| 1777585552 | 10° C | 42% | 1017.4 hPa | 0 mm | - | 121 W/m² | - |
| 1777584943 | 10.56° C | 42% | 1017.2 hPa | 0 mm | - | 181 W/m² | - |
| 1777584641 | 10° C | 43% | 1017.4 hPa | 0 mm | - | 181 W/m² | - |
| 1777583728 | 10.56° C | 43% | 1017.3 hPa | 0 mm | - | 254 W/m² | - |
| 1777583427 | 10° C | 46% | 1017.5 hPa | 0 mm | - | 205 W/m² | - |
| 1777583126 | 10° C | 43% | 1017.4 hPa | 0 mm | - | 178 W/m² | - |
| 1777582823 | 10.56° C | 43% | 1017.4 hPa | 0 mm | - | 186 W/m² | - |
| 1777582520 | 10.56° C | 43% | 1017.5 hPa | 0 mm | - | 206 W/m² | - |
| 1777582215 | 10° C | 42% | 1017.5 hPa | 0 mm | - | 190 W/m² | - |
| 1777581608 | 10° C | 42% | 1017.4 hPa | 0 mm | - | 738 W/m² | - |
| 1777580997 | 10° C | 43% | 1017.4 hPa | 0 mm | - | 331 W/m² | - |
| 1777580697 | 10° C | 45% | 1017.3 hPa | 0 mm | - | 214 W/m² | - |
| 1777579786 | 10° C | 43% | 1017.7 hPa | 0 mm | - | 183 W/m² | - |
| 1777579179 | 10.56° C | 46% | 1017.6 hPa | 0 mm | - | 173 W/m² | - |
| 1777578265 | 10.56° C | 47% | 1017.7 hPa | 0 mm | - | 541 W/m² | - |
| 1777577961 | 11.11° C | 45% | 1017.5 hPa | 0 mm | - | 311 W/m² | - |
| 1777577656 | 10.56° C | 47% | 1017.7 hPa | 0 mm | - | 309 W/m² | - |
| 1777577354 | 10° C | 45% | 1017.7 hPa | 0 mm | - | 252 W/m² | - |
| 1777577049 | 10° C | 49% | 1018 hPa | 0 mm | - | 362 W/m² | - |
| 1777576747 | 10° C | 51% | 1018 hPa | 0 mm | - | 322 W/m² | - |
| 1777576143 | 10° C | 49% | 1017.9 hPa | 0 mm | - | 209 W/m² | - |
| 1777575535 | 10° C | 49% | 1017.8 hPa | 0 mm | - | 490 W/m² | - |
| 1777573108 | 8.89° C | 50% | 1017.8 hPa | 0 mm | - | 192 W/m² | - |
| 1777572805 | 10° C | 47% | 1017.8 hPa | 0 mm | - | 312 W/m² | - |
| 1777566432 | 8.89° C | 55% | 1018.4 hPa | 0 mm | - | 283 W/m² | - |
* Rain latest hour (hover to see other rain measurements)
** Current wind speed in m/s (hover to see current wind gust speed)